Time;durP1;ratioP1;P1;durP2;ratioP2;P2;SDS_P1;SDS_P2;PMS_P1;PMS_P2;Temp;Humidity;BMP_temperature;BMP_pressure;BME280_temperature;BME280_humidity;BME280_pressure;Samples;Min_cycle;Max_cycle;Signal;HPM_P1;HPM_P2
2022/07/26 00:01:42;;;;;;;3.17;1.77;;;;;;;21.43;53.75;100351.66;5019257;28;20227;-74
2022/07/26 00:04:10;;;;;;;5.97;1.77;;;;;;;21.41;53.86;100351.84;5026678;28;20207;-74
2022/07/26 00:06:37;;;;;;;4.37;1.50;;;;;;;21.40;54.12;100357.41;5022922;28;20205;-74
2022/07/26 00:09:04;;;;;;;4.33;1.80;;;;;;;21.40;54.15;100355.56;5021813;28;20699;-75
2022/07/26 00:11:32;;;;;;;5.83;1.87;;;;;;;21.39;54.04;100353.88;5027092;28;20211;-74
2022/07/26 00:13:59;;;;;;;5.22;1.80;;;;;;;21.37;54.09;100355.91;5018181;28;20319;-74
2022/07/26 00:16:26;;;;;;;4.57;1.70;;;;;;;21.36;54.37;100356.91;5023028;28;20619;-73
2022/07/26 00:18:52;;;;;;;5.93;1.70;;;;;;;21.35;54.42;100352.53;5017785;28;20207;-74
2022/07/26 00:21:20;;;;;;;6.63;1.67;;;;;;;21.37;54.35;100349.63;5025250;28;20220;-74
2022/07/26 00:23:47;;;;;;;4.90;1.40;;;;;;;21.36;54.41;100356.06;5019127;28;20683;-74
2022/07/26 00:26:13;;;;;;;3.80;1.70;;;;;;;21.35;54.34;100349.81;5020520;28;20216;-74
2022/07/26 00:28:41;;;;;;;5.22;1.60;;;;;;;21.36;54.33;100364.19;5023408;28;20216;-74
2022/07/26 00:31:08;;;;;;;5.70;1.63;;;;;;;21.35;54.39;100355.22;5018872;28;20216;-74
2022/07/26 00:33:34;;;;;;;9.20;1.73;;;;;;;21.34;54.45;100369.78;5016204;28;20292;-74
2022/07/26 00:36:01;;;;;;;6.37;1.60;;;;;;;21.34;54.24;100358.09;5021063;28;20214;-74
2022/07/26 00:38:29;;;;;;;3.80;1.73;;;;;;;21.32;54.25;100355.56;5022678;28;20206;-74
2022/07/26 00:40:55;;;;;;;3.08;1.33;;;;;;;21.29;54.26;100355.94;5022925;28;20686;-74
2022/07/26 00:43:22;;;;;;;4.23;1.47;;;;;;;21.26;54.42;100355.44;5022737;28;20236;-75
2022/07/26 00:45:49;;;;;;;4.28;1.52;;;;;;;21.23;54.30;100356.63;5020855;28;20202;-74
2022/07/26 00:48:15;;;;;;;5.20;1.20;;;;;;;21.18;54.11;100358.97;5027939;28;20235;-74
2022/07/26 00:50:42;;;;;;;4.80;1.17;;;;;;;21.13;53.83;100362.22;5025921;28;20267;-75
2022/07/26 00:53:09;;;;;;;2.93;1.20;;;;;;;21.11;53.76;100360.69;5018258;28;20239;-73
2022/07/26 00:55:37;;;;;;;2.57;1.03;;;;;;;21.07;53.70;100362.88;5020069;28;20203;-74
2022/07/26 00:58:05;;;;;;;4.20;1.50;;;;;;;21.07;53.85;100370.16;5026912;28;20207;-74
2022/07/26 01:00:32;;;;;;;2.93;1.20;;;;;;;21.06;53.97;100371.19;5024062;28;20212;-74
2022/07/26 01:02:59;;;;;;;5.57;1.30;;;;;;;21.07;54.13;100372.88;5019161;28;20229;-74
2022/07/26 01:05:27;;;;;;;2.47;1.00;;;;;;;21.08;54.04;100370.00;5024931;28;20288;-74
2022/07/26 01:07:53;;;;;;;6.73;1.17;;;;;;;21.09;54.17;100368.13;5023264;28;20211;-74
2022/07/26 01:10:20;;;;;;;1.77;0.87;;;;;;;21.11;54.25;100363.41;5033860;22;20208;-85
2022/07/26 01:12:48;;;;;;;2.13;1.30;;;;;;;21.12;54.16;100365.09;5046086;28;20215;-85
2022/07/26 01:15:16;;;;;;;3.23;1.27;;;;;;;21.12;54.07;100359.69;5042439;28;20215;-86
2022/07/26 01:17:44;;;;;;;3.43;1.00;;;;;;;21.13;53.97;100355.94;5043887;28;20242;-86
2022/07/26 01:20:13;;;;;;;2.77;0.97;;;;;;;21.12;53.96;100368.66;5050516;28;20213;-85
2022/07/26 01:22:41;;;;;;;2.60;0.93;;;;;;;21.11;53.99;100366.94;5044128;28;20214;-85
2022/07/26 01:25:08;;;;;;;2.33;1.08;;;;;;;21.09;53.96;100371.69;5043960;28;20207;-85
2022/07/26 01:27:38;;;;;;;3.13;1.00;;;;;;;21.08;54.30;100371.84;5044597;28;20316;-86
2022/07/26 01:30:07;;;;;;;6.73;1.53;;;;;;;21.08;54.02;100369.16;5046287;28;20204;-85
2022/07/26 01:32:34;;;;;;;3.10;1.10;;;;;;;21.07;53.99;100373.72;5040200;28;20201;-86
2022/07/26 01:35:01;;;;;;;4.33;1.13;;;;;;;21.06;53.98;100372.03;5041381;28;20211;-85
2022/07/26 01:37:28;;;;;;;1.52;0.90;;;;;;;21.05;53.87;100373.03;5050990;28;20269;-86
2022/07/26 01:39:55;;;;;;;5.53;1.13;;;;;;;21.05;54.03;100373.03;5045331;28;20210;-85
2022/07/26 01:42:22;;;;;;;1.23;0.63;;;;;;;21.04;54.13;100378.63;5046205;28;20296;-85
2022/07/26 01:44:48;;;;;;;4.17;0.90;;;;;;;21.04;54.08;100367.78;5046902;28;20338;-86
2022/07/26 01:47:15;;;;;;;3.33;1.00;;;;;;;21.03;54.34;100374.22;5048066;28;20212;-85
2022/07/26 01:49:42;;;;;;;4.00;0.90;;;;;;;21.02;54.30;100383.38;5045107;28;20213;-85
2022/07/26 01:52:08;;;;;;;2.53;0.90;;;;;;;21.01;54.24;100382.50;5040341;28;20291;-85
2022/07/26 01:54:35;;;;;;;2.63;0.90;;;;;;;21.01;54.24;100381.66;5037985;28;20620;-86
2022/07/26 01:57:03;;;;;;;4.17;1.00;;;;;;;20.99;54.49;100389.13;5049740;28;20201;-85
2022/07/26 01:59:29;;;;;;;3.23;1.00;;;;;;;20.97;54.66;100391.13;5039574;28;20235;-85
2022/07/26 02:01:56;;;;;;;6.40;1.30;;;;;;;20.95;54.68;100388.63;5046176;28;20228;-85
2022/07/26 02:07:06;;;;;;;3.13;0.83;;;;;;;20.90;54.79;100388.28;5040553;28;20235;-85
2022/07/26 02:09:33;;;;;;;3.43;1.17;;;;;;;20.89;54.95;100391.16;5040843;28;20241;-85
2022/07/26 02:12:00;;;;;;;2.83;0.90;;;;;;;20.87;55.16;100385.91;5044186;28;20220;-87
2022/07/26 02:14:27;;;;;;;2.23;0.87;;;;;;;20.86;55.14;100391.50;5048163;28;20269;-85
2022/07/26 02:16:58;;;;;;;4.53;0.90;;;;;;;20.83;55.12;100389.13;5042482;28;20209;-85
2022/07/26 02:19:25;;;;;;;2.85;1.02;;;;;;;20.82;55.22;100392.84;5039257;28;20225;-85
2022/07/26 02:21:51;;;;;;;2.23;1.07;;;;;;;20.80;55.40;100399.28;5048905;28;20278;-85
2022/07/26 02:24:18;;;;;;;2.30;0.90;;;;;;;20.79;55.66;100400.28;5049939;28;21018;-85
2022/07/26 02:26:44;;;;;;;3.60;1.10;;;;;;;20.78;55.60;100398.59;5040495;28;20223;-85
2022/07/26 02:29:11;;;;;;;2.70;0.93;;;;;;;20.78;55.72;100403.19;5045911;28;20261;-85
2022/07/26 02:31:39;;;;;;;2.83;0.93;;;;;;;20.79;55.61;100402.13;5045400;28;20210;-86
2022/07/26 02:34:05;;;;;;;10.83;1.20;;;;;;;20.76;55.81;100402.50;5042329;28;20223;-85
2022/07/26 02:36:32;;;;;;;5.03;1.37;;;;;;;20.75;56.00;100401.66;5042996;28;20206;-86
2022/07/26 02:38:58;;;;;;;3.47;1.17;;;;;;;20.76;56.02;100416.03;5042878;28;20289;-85
2022/07/26 02:41:25;;;;;;;2.97;1.07;;;;;;;20.74;56.10;100409.94;5049969;28;20280;-84
2022/07/26 02:43:51;;;;;;;5.20;1.40;;;;;;;20.73;55.99;100413.66;5045286;28;20234;-85
2022/07/26 02:46:18;;;;;;;2.10;0.97;;;;;;;20.72;56.15;100409.25;5040630;28;20210;-85
2022/07/26 02:48:46;;;;;;;2.97;0.93;;;;;;;20.69;56.24;100413.16;5041201;28;20318;-86
2022/07/26 02:51:12;;;;;;;4.10;1.00;;;;;;;20.68;56.33;100408.75;5044875;28;20205;-85
2022/07/26 02:53:39;;;;;;;8.13;1.30;;;;;;;20.68;56.49;100419.56;5046487;28;20604;-86
2022/07/26 02:56:06;;;;;;;4.50;1.00;;;;;;;20.65;56.66;100400.13;5047913;28;20207;-85
2022/07/26 02:58:32;;;;;;;3.33;0.90;;;;;;;20.65;56.74;100419.91;5044647;28;20244;-84
2022/07/26 03:00:59;;;;;;;5.50;1.13;;;;;;;20.64;56.81;100410.09;5041534;28;20213;-85
2022/07/26 03:03:25;;;;;;;2.53;1.10;;;;;;;20.63;56.89;100421.06;5042539;28;20203;-85
2022/07/26 03:05:53;;;;;;;6.23;1.10;;;;;;;20.61;57.23;100421.25;5044506;28;20763;-85
2022/07/26 03:08:20;;;;;;;3.77;1.20;;;;;;;20.61;57.22;100421.25;5048849;28;20314;-85
2022/07/26 03:10:47;;;;;;;5.33;1.37;;;;;;;20.61;57.09;100421.25;5039857;28;20211;-85
2022/07/26 03:13:14;;;;;;;6.87;1.57;;;;;;;20.59;57.36;100428.72;5041174;28;20778;-86
2022/07/26 03:15:41;;;;;;;2.77;1.00;;;;;;;20.56;57.33;100417.38;5044019;28;20611;-86
2022/07/26 03:18:07;;;;;;;5.17;1.20;;;;;;;20.57;57.49;100419.91;5046813;28;20309;-86
2022/07/26 03:20:34;;;;;;;3.07;1.13;;;;;;;20.54;57.43;100417.53;5045983;28;20293;-86
2022/07/26 03:23:02;;;;;;;4.53;1.20;;;;;;;20.52;57.79;100416.84;5047838;28;20205;-85
2022/07/26 03:25:28;;;;;;;3.13;1.10;;;;;;;20.49;57.77;100419.03;5042376;28;20269;-86
2022/07/26 03:27:55;;;;;;;3.77;1.30;;;;;;;20.47;58.07;100421.91;5049653;28;20232;-85
2022/07/26 03:30:22;;;;;;;3.60;1.30;;;;;;;20.44;58.44;100414.97;5041951;28;20209;-85
2022/07/26 03:32:49;;;;;;;5.37;1.20;;;;;;;20.44;58.64;100422.22;5047755;28;20221;-84
2022/07/26 03:35:15;;;;;;;4.17;1.20;;;;;;;20.44;58.56;100430.34;5034285;28;20225;-85
2022/07/26 03:37:42;;;;;;;4.47;1.13;;;;;;;20.43;58.83;100428.66;5040004;28;20231;-84
2022/07/26 03:40:11;;;;;;;3.13;1.10;;;;;;;20.40;58.84;100429.84;5050543;28;20210;-85
2022/07/26 03:42:37;;;;;;;3.00;1.13;;;;;;;20.38;59.03;100426.47;5041236;28;20223;-86
2022/07/26 03:45:05;;;;;;;5.00;1.27;;;;;;;20.37;59.18;100426.63;5051912;28;20340;-85
2022/07/26 03:47:31;;;;;;;4.17;1.23;;;;;;;20.34;59.17;100426.94;5041099;28;20298;-86
2022/07/26 03:49:58;;;;;;;3.70;1.40;;;;;;;20.33;59.30;100419.81;5044302;28;20213;-85
2022/07/26 03:52:24;;;;;;;5.37;1.30;;;;;;;20.30;59.34;100422.84;5043673;28;20329;-85
2022/07/26 03:54:51;;;;;;;3.13;1.30;;;;;;;20.26;59.45;100425.03;5049794;28;20235;-85
2022/07/26 03:57:17;;;;;;;4.23;1.10;;;;;;;20.25;59.71;100419.78;5040805;28;20294;-86
2022/07/26 03:59:44;;;;;;;4.53;1.43;;;;;;;20.23;59.82;100427.25;5038159;28;20206;-86
2022/07/26 04:02:11;;;;;;;5.13;1.40;;;;;;;20.21;59.95;100423.84;5038258;28;20215;-84
2022/07/26 04:04:37;;;;;;;3.43;1.30;;;;;;;20.18;59.98;100418.78;5037690;28;20206;-86
2022/07/26 04:07:04;;;;;;;7.03;1.30;;;;;;;20.14;60.10;100414.69;5038215;28;20301;-85
2022/07/26 04:09:31;;;;;;;3.83;1.40;;;;;;;20.12;60.51;100422.97;5039770;28;20225;-85
2022/07/26 04:11:57;;;;;;;3.93;1.70;;;;;;;20.11;60.69;100423.97;5044868;28;20282;-85
2022/07/26 04:14:25;;;;;;;4.40;1.43;;;;;;;20.12;60.99;100428.38;5034814;28;20292;-86
2022/07/26 04:16:52;;;;;;;5.40;1.47;;;;;;;20.10;60.94;100433.09;5046499;28;20202;-85
2022/07/26 04:19:18;;;;;;;6.57;1.97;;;;;;;20.08;60.83;100427.84;5043101;28;21035;-85
2022/07/26 04:21:45;;;;;;;3.60;1.50;;;;;;;20.08;61.45;100425.16;5040476;28;20281;-86
2022/07/26 04:24:11;;;;;;;8.10;1.83;;;;;;;20.07;61.43;100428.84;5046647;28;20230;-85
2022/07/26 04:26:38;;;;;;;7.83;1.73;;;;;;;20.06;61.78;100429.88;5047595;28;20244;-85
2022/07/26 04:29:05;;;;;;;4.37;1.60;;;;;;;20.05;61.92;100436.31;5043667;28;20222;-85
2022/07/26 04:31:32;;;;;;;4.70;1.73;;;;;;;20.05;62.02;100436.31;5046035;28;20305;-84
2022/07/26 04:33:59;;;;;;;5.57;1.50;;;;;;;20.06;62.19;100437.16;5049337;28;20292;-86
2022/07/26 04:36:25;;;;;;;6.83;1.80;;;;;;;20.05;62.30;100435.47;5043332;28;20207;-86
2022/07/26 04:38:52;;;;;;;6.50;1.77;;;;;;;20.05;62.45;100438.16;5043985;28;20217;-85
2022/07/26 04:41:19;;;;;;;4.80;1.50;;;;;;;20.05;62.62;100440.88;5039891;28;20215;-85
2022/07/26 04:43:45;;;;;;;6.07;1.77;;;;;;;20.04;62.68;100437.31;5044609;28;20204;-84
2022/07/26 04:46:12;;;;;;;4.83;1.90;;;;;;;20.05;62.91;100436.31;5038670;28;20217;-85
2022/07/26 04:48:39;;;;;;;4.63;1.80;;;;;;;20.06;63.13;100440.69;5043140;28;20305;-85
2022/07/26 04:51:06;;;;;;;5.53;1.93;;;;;;;20.08;63.17;100432.41;5049155;28;20200;-85
2022/07/26 04:53:32;;;;;;;4.10;2.07;;;;;;;20.08;63.03;100441.38;5044829;28;20203;-85
2022/07/26 04:55:59;;;;;;;6.20;1.87;;;;;;;20.10;63.21;100439.34;5038361;28;20211;-85
2022/07/26 04:58:26;;;;;;;6.40;2.37;;;;;;;20.10;63.44;100438.50;5035812;28;20232;-85
2022/07/26 05:00:53;;;;;;;5.50;1.80;;;;;;;20.11;63.33;100432.94;5047952;28;20217;-85
2022/07/26 05:03:20;;;;;;;4.33;1.50;;;;;;;20.11;63.45;100429.38;5044263;28;20216;-85
2022/07/26 05:05:48;;;;;;;4.23;1.83;;;;;;;20.12;63.03;100431.09;5044996;28;20281;-85
2022/07/26 05:08:16;;;;;;;7.40;2.40;;;;;;;20.14;63.38;100428.22;5053697;28;20282;-85
2022/07/26 05:10:42;;;;;;;6.00;2.10;;;;;;;20.14;63.17;100428.22;5043934;28;20241;-85
2022/07/26 05:13:09;;;;;;;4.70;1.87;;;;;;;20.17;63.05;100438.72;5041785;28;20203;-86
2022/07/26 05:15:36;;;;;;;6.33;2.30;;;;;;;20.17;62.90;100431.44;5047548;28;20237;-85
2022/07/26 05:18:04;;;;;;;8.43;2.20;;;;;;;20.18;62.96;100427.72;5043862;28;20648;-86
2022/07/26 05:20:31;;;;;;;4.90;2.47;;;;;;;20.21;62.90;100429.25;5050742;28;20210;-86
2022/07/26 05:22:59;;;;;;;7.60;2.53;;;;;;;20.23;62.66;100435.34;5042851;28;20203;-85
2022/07/26 05:25:26;;;;;;;4.37;2.53;;;;;;;20.23;62.56;100427.25;5045956;28;20205;-86
2022/07/26 05:27:53;;;;;;;8.77;2.43;;;;;;;20.24;62.62;100443.31;5043086;28;20318;-85
2022/07/26 05:30:19;;;;;;;6.27;2.87;;;;;;;20.25;62.26;100447.69;5043991;28;20212;-86
2022/07/26 05:32:46;;;;;;;4.33;2.10;;;;;;;20.27;62.45;100439.41;5041351;28;20212;-86
2022/07/26 05:35:13;;;;;;;5.93;2.70;;;;;;;20.24;62.51;100437.91;5055924;28;20221;-84
2022/07/26 05:37:39;;;;;;;5.70;2.60;;;;;;;20.26;62.43;100440.41;5049122;28;20236;-85
2022/07/26 05:40:09;;;;;;;4.63;2.40;;;;;;;20.30;62.30;100433.66;5051505;28;20213;-86
2022/07/26 05:42:35;;;;;;;5.87;2.30;;;;;;;20.31;62.26;100438.06;5046614;28;20232;-85
2022/07/26 05:45:02;;;;;;;5.03;2.40;;;;;;;20.32;62.59;100428.94;5040256;28;20307;-86
2022/07/26 05:47:29;;;;;;;5.83;2.70;;;;;;;20.34;63.02;100437.75;5039662;28;20304;-86
2022/07/26 05:49:56;;;;;;;5.13;2.37;;;;;;;20.35;63.08;100445.69;5045201;28;20852;-85
2022/07/26 05:52:23;;;;;;;5.43;2.67;;;;;;;20.34;62.96;100443.16;5040815;28;20312;-85
2022/07/26 05:54:50;;;;;;;5.73;2.83;;;;;;;20.32;63.25;100439.75;5037694;28;20237;-85
2022/07/26 05:57:17;;;;;;;6.30;2.50;;;;;;;20.31;63.07;100454.28;5038918;28;20212;-85
2022/07/26 05:59:44;;;;;;;5.37;2.60;;;;;;;20.29;63.34;100459.03;5039386;28;20230;-85
2022/07/26 06:02:11;;;;;;;6.67;3.10;;;;;;;20.28;63.50;100454.63;5043919;28;20207;-86
2022/07/26 06:04:37;;;;;;;3.80;2.70;;;;;;;20.28;63.39;100457.31;5038512;28;20209;-85
2022/07/26 06:07:04;;;;;;;5.13;2.77;;;;;;;20.26;63.37;100456.63;5038310;28;20688;-85
2022/07/26 06:09:30;;;;;;;6.20;3.10;;;;;;;20.24;63.60;100455.97;5040013;28;20232;-85
2022/07/26 06:11:57;;;;;;;5.03;2.87;;;;;;;20.24;63.69;100462.25;5044052;28;20222;-86
2022/07/26 06:14:25;;;;;;;5.13;2.77;;;;;;;20.24;63.87;100455.97;5040524;28;20228;-85
2022/07/26 06:16:52;;;;;;;6.00;3.10;;;;;;;20.23;63.85;100457.84;5037673;28;20207;-85
2022/07/26 06:19:18;;;;;;;7.23;2.93;;;;;;;20.23;63.91;100457.00;5044672;28;20640;-85
2022/07/26 06:21:45;;;;;;;6.53;3.03;;;;;;;20.24;64.03;100464.94;5041385;28;20221;-85
2022/07/26 06:24:12;;;;;;;6.93;3.03;;;;;;;20.26;64.07;100471.00;5047790;28;20319;-85
2022/07/26 06:26:39;;;;;;;6.43;2.87;;;;;;;20.29;63.97;100477.94;5042582;28;20239;-85
2022/07/26 06:29:05;;;;;;;4.97;2.87;;;;;;;20.29;64.09;100473.38;5041491;28;20224;-86
2022/07/26 06:31:33;;;;;;;5.90;3.30;;;;;;;20.32;64.09;100473.06;5040904;28;20218;-86
2022/07/26 06:33:59;;;;;;;6.80;3.10;;;;;;;20.33;63.90;100476.63;5041127;28;20279;-85
2022/07/26 06:36:26;;;;;;;5.47;2.90;;;;;;;20.33;63.94;100484.72;5043008;28;20294;-85
2022/07/26 06:38:53;;;;;;;6.63;3.67;;;;;;;20.34;63.89;100489.13;5041716;28;20320;-85
2022/07/26 06:41:20;;;;;;;8.00;3.63;;;;;;;20.35;63.84;100490.81;5041917;28;20207;-85
2022/07/26 06:43:46;;;;;;;5.57;3.13;;;;;;;20.35;64.13;100486.28;5037782;28;20201;-85
2022/07/26 06:46:13;;;;;;;5.60;2.90;;;;;;;20.39;64.09;100490.38;5041648;28;20201;-85
2022/07/26 06:48:41;;;;;;;5.70;2.63;;;;;;;20.43;64.20;100488.16;5036917;28;20231;-85
2022/07/26 06:51:08;;;;;;;7.73;3.57;;;;;;;20.50;64.05;100491.06;5041806;28;20216;-85
2022/07/26 06:53:35;;;;;;;6.60;3.10;;;;;;;20.57;63.79;100494.81;5035941;28;20307;-85
2022/07/26 06:56:02;;;;;;;8.07;3.23;;;;;;;20.63;63.56;100496.84;5034903;28;20237;-85
2022/07/26 06:58:28;;;;;;;5.50;3.27;;;;;;;20.70;63.48;100492.47;5042288;28;20471;-86
2022/07/26 07:00:55;;;;;;;5.93;3.10;;;;;;;20.77;63.39;100491.66;5039504;28;20222;-85
2022/07/26 07:03:22;;;;;;;7.10;3.20;;;;;;;20.81;62.85;100486.72;5038824;28;20291;-84
2022/07/26 07:05:50;;;;;;;8.00;3.30;;;;;;;20.85;62.79;100493.50;5042061;28;20221;-85
2022/07/26 07:08:16;;;;;;;9.63;3.80;;;;;;;20.87;62.62;100487.94;5038817;28;20229;-85
2022/07/26 07:10:43;;;;;;;7.43;3.80;;;;;;;20.93;62.79;100485.41;5048205;28;20235;-85
2022/07/26 07:13:09;;;;;;;4.10;3.23;;;;;;;21.05;62.45;100488.63;5042435;28;20210;-86
2022/07/26 07:15:36;;;;;;;11.43;3.70;;;;;;;21.19;62.36;100478.97;5049951;28;20232;-85
2022/07/26 07:18:03;;;;;;;7.03;3.47;;;;;;;21.33;61.77;100490.00;5043487;28;20221;-85
2022/07/26 07:20:29;;;;;;;4.50;3.40;;;;;;;21.41;61.19;100494.56;5046606;28;20219;-86
2022/07/26 07:22:57;;;;;;;7.75;2.95;;;;;;;21.47;60.82;100497.47;5038997;28;20212;-86
2022/07/26 07:25:24;;;;;;;6.93;3.20;;;;;;;21.54;60.22;100504.88;5045394;28;20206;-86
2022/07/26 07:27:50;;;;;;;8.52;2.83;;;;;;;21.62;60.31;100499.47;5040423;28;20232;-85
2022/07/26 07:30:20;;;;;;;6.57;3.25;;;;;;;21.67;60.00;100500.66;5037995;28;20202;-85
2022/07/26 07:32:46;;;;;;;7.13;3.50;;;;;;;21.73;59.66;100502.66;5044860;28;20213;-85
2022/07/26 07:35:13;;;;;;;6.10;3.53;;;;;;;21.82;59.82;100487.22;5048819;28;20299;-85
2022/07/26 07:37:39;;;;;;;5.07;3.78;;;;;;;21.88;59.35;100491.09;5043284;28;20575;-84
2022/07/26 07:40:09;;;;;;;6.90;2.88;;;;;;;21.96;59.24;100489.22;5042085;28;20293;-86
2022/07/26 07:42:36;;;;;;;6.28;3.10;;;;;;;22.04;59.23;100486.47;5036181;28;20206;-85
2022/07/26 07:45:04;;;;;;;5.88;3.00;;;;;;;22.14;58.93;100489.00;5042716;28;20211;-85
2022/07/26 07:47:33;;;;;;;6.40;3.15;;;;;;;22.23;58.48;100490.66;5040206;28;20220;-85
2022/07/26 07:49:59;;;;;;;7.57;3.30;;;;;;;22.29;58.08;100494.53;5041345;28;22002;-85
2022/07/26 07:52:26;;;;;;;4.18;3.05;;;;;;;22.31;57.70;100496.06;5043557;28;20205;-86
2022/07/26 07:54:52;;;;;;;5.85;3.10;;;;;;;22.33;57.48;100487.75;5042524;28;20218;-86
2022/07/26 07:57:20;;;;;;;5.00;3.42;;;;;;;22.40;57.29;100484.13;5039554;28;20221;-85
2022/07/26 07:59:47;;;;;;;6.80;3.78;;;;;;;22.53;57.30;100486.28;5044362;28;20273;-85
2022/07/26 08:02:14;;;;;;;4.65;3.40;;;;;;;22.65;56.79;100487.56;5049687;28;20205;-85
2022/07/26 08:04:41;;;;;;;5.32;3.50;;;;;;;22.78;56.12;100495.13;5038394;28;20234;-85
2022/07/26 08:07:07;;;;;;;4.55;3.25;;;;;;;22.89;55.96;100505.59;5039854;28;20423;-85
2022/07/26 08:09:34;;;;;;;5.60;3.20;;;;;;;22.97;54.81;100499.25;5041791;28;20290;-85
2022/07/26 08:12:00;;;;;;;3.65;2.83;;;;;;;23.08;54.64;100488.81;5042572;28;20218;-86
2022/07/26 08:14:28;;;;;;;4.88;2.88;;;;;;;23.14;54.22;100489.94;5041424;28;20217;-85
2022/07/26 08:16:55;;;;;;;7.50;3.53;;;;;;;23.25;54.00;100492.25;5049952;28;20209;-85
2022/07/26 08:19:21;;;;;;;4.90;2.95;;;;;;;23.34;53.34;100484.84;5044764;28;20696;-86
2022/07/26 08:21:48;;;;;;;6.93;2.90;;;;;;;23.45;53.32;100496.16;5036225;28;20222;-85
2022/07/26 08:24:15;;;;;;;5.78;3.20;;;;;;;23.54;52.83;100484.19;5041246;28;20202;-85
2022/07/26 08:26:41;;;;;;;4.18;2.58;;;;;;;23.66;52.16;100492.72;5037475;28;20208;-85
2022/07/26 08:29:08;;;;;;;4.10;2.72;;;;;;;23.76;50.98;100492.47;5036963;28;20229;-85
2022/07/26 08:31:35;;;;;;;4.93;2.65;;;;;;;23.83;50.40;100485.22;5035599;28;20219;-85
2022/07/26 08:34:02;;;;;;;4.55;2.47;;;;;;;23.89;49.58;100479.91;5043922;28;20695;-85
2022/07/26 08:36:29;;;;;;;5.05;2.03;;;;;;;23.94;48.61;100489.38;5046391;28;20245;-85
2022/07/26 08:38:55;;;;;;;3.95;1.58;;;;;;;24.00;48.41;100497.63;5042512;28;20267;-85
2022/07/26 08:41:22;;;;;;;5.05;1.90;;;;;;;24.06;48.14;100496.88;5033162;28;20270;-85
2022/07/26 08:43:49;;;;;;;4.60;2.30;;;;;;;24.16;47.91;100496.59;5043569;28;20206;-85
2022/07/26 08:46:15;;;;;;;3.70;2.42;;;;;;;24.26;47.84;100504.50;5042387;28;20205;-85
2022/07/26 08:48:43;;;;;;;2.63;1.98;;;;;;;24.32;47.43;100509.19;5050061;28;20311;-85
2022/07/26 08:51:11;;;;;;;9.40;2.10;;;;;;;24.34;46.63;100502.53;5044004;28;20210;-85
2022/07/26 08:53:39;;;;;;;4.95;2.25;;;;;;;24.41;47.02;100510.75;5047996;28;20246;-85
2022/07/26 08:56:05;;;;;;;7.25;2.25;;;;;;;24.48;46.56;100509.81;5043404;28;20234;-86
2022/07/26 08:58:34;;;;;;;6.22;2.10;;;;;;;24.60;46.38;100504.72;5046814;28;20236;-86
2022/07/26 09:01:06;;;;;;;3.53;2.03;;;;;;;24.72;46.52;100500.44;5051678;28;20217;-85
2022/07/26 09:03:32;;;;;;;3.90;1.98;;;;;;;24.82;45.13;100520.06;5045617;28;20227;-85
2022/07/26 09:06:16;;;;;;;2.67;1.80;;;;;;;24.84;44.89;100523.44;5042997;28;20276;-85
2022/07/26 09:08:44;;;;;;;2.72;1.70;;;;;;;24.86;45.01;100517.81;5054246;28;20223;-85
2022/07/26 09:11:28;;;;;;;5.28;2.20;;;;;;;24.88;44.97;100513.00;5050951;28;20227;-85
2022/07/26 09:13:56;;;;;;;3.47;2.03;;;;;;;24.89;45.36;100529.16;5044148;28;20212;-86
2022/07/26 09:16:23;;;;;;;4.30;2.03;;;;;;;24.86;44.95;100547.75;5045043;28;20225;-84
2022/07/26 09:18:50;;;;;;;2.78;1.30;;;;;;;24.80;46.39;100562.97;5044998;28;20245;-85
2022/07/26 09:21:28;;;;;;;2.47;1.00;;;;;;;24.68;47.59;100566.41;5034552;28;20288;-85
2022/07/26 09:23:55;;;;;;;2.25;0.80;;;;;;;24.50;48.61;100580.41;5035362;28;20205;-85
2022/07/26 09:26:22;;;;;;;2.38;1.00;;;;;;;24.31;49.65;100575.53;5042940;28;20311;-85
2022/07/26 09:29:02;;;;;;;1.25;0.80;;;;;;;24.10;50.35;100596.13;5050982;28;20236;-84
2022/07/26 09:31:28;;;;;;;0.85;0.55;;;;;;;23.90;51.16;100605.84;5044585;28;20201;-86
2022/07/26 09:33:55;;;;;;;1.73;0.60;;;;;;;23.71;51.25;100607.22;5045699;28;20205;-85
2022/07/26 09:36:22;;;;;;;1.25;0.65;;;;;;;23.50;51.86;100618.75;5048748;28;20227;-85
2022/07/26 09:38:51;;;;;;;1.25;0.60;;;;;;;23.30;52.28;100620.25;5040338;28;20306;-85
2022/07/26 09:41:19;;;;;;;1.50;0.50;;;;;;;23.13;52.88;100629.53;5037057;28;20206;-85
2022/07/26 09:43:45;;;;;;;2.25;0.90;;;;;;;22.95;52.97;100631.66;5038330;28;20206;-85
2022/07/26 09:46:12;;;;;;;0.95;0.70;;;;;;;22.78;53.30;100636.31;5043670;28;20643;-85
2022/07/26 09:48:39;;;;;;;1.48;0.85;;;;;;;22.60;53.57;100643.81;5039344;28;20218;-85
2022/07/26 09:51:06;;;;;;;1.92;0.80;;;;;;;22.43;53.60;100640.31;5035373;28;20228;-85
2022/07/26 09:53:39;;;;;;;2.33;0.90;;;;;;;22.26;53.84;100644.94;5037876;28;20236;-84
2022/07/26 09:56:07;;;;;;;1.98;0.82;;;;;;;22.14;54.26;100651.75;5038247;28;20232;-85
2022/07/26 09:58:35;;;;;;;1.45;0.95;;;;;;;22.03;54.49;100647.53;5037082;28;20233;-85
2022/07/26 10:01:01;;;;;;;0.80;0.60;;;;;;;21.91;54.80;100648.84;5034911;28;20213;-86
2022/07/26 10:03:29;;;;;;;2.10;1.00;;;;;;;21.83;55.14;100651.59;5040745;28;20212;-85
2022/07/26 10:05:57;;;;;;;1.10;0.73;;;;;;;21.75;55.08;100657.00;5041102;28;20639;-85
2022/07/26 10:08:23;;;;;;;3.08;0.90;;;;;;;21.69;55.47;100660.38;5037301;28;20233;-85
2022/07/26 10:10:55;;;;;;;3.03;1.17;;;;;;;21.64;55.92;100658.19;5040405;28;20218;-85
2022/07/26 10:13:23;;;;;;;1.60;0.90;;;;;;;21.63;56.20;100669.19;5035216;28;20205;-85
2022/07/26 10:15:51;;;;;;;1.57;0.90;;;;;;;21.59;56.73;100673.25;5036353;28;20648;-85
2022/07/26 10:18:43;;;;;;;2.00;0.90;;;;;;;21.60;57.34;100677.66;5035940;28;20245;-85
2022/07/26 10:21:21;;;;;;;1.60;1.13;;;;;;;21.60;57.50;100675.78;5033740;28;20206;-85
2022/07/26 10:23:49;;;;;;;2.23;1.10;;;;;;;21.61;57.80;100687.47;5036977;28;20244;-86
2022/07/26 10:26:36;;;;;;;1.48;0.98;;;;;;;21.65;58.02;100678.84;5034784;28;20198;-85
2022/07/26 10:29:31;;;;;;;1.52;0.93;;;;;;;21.68;58.02;100681.22;5033888;28;20254;-85
2022/07/26 10:32:15;;;;;;;1.70;0.88;;;;;;;21.69;57.90;100679.34;5001365;28;20213;-85
2022/07/26 10:34:41;;;;;;;2.80;1.20;;;;;;;21.71;58.10;100686.28;5037435;28;20216;-85
2022/07/26 10:37:10;;;;;;;1.85;1.10;;;;;;;21.76;58.19;100694.78;5034613;28;20224;-86
2022/07/26 10:39:38;;;;;;;2.10;0.80;;;;;;;21.80;58.03;100681.75;5034039;28;20726;-86
2022/07/26 10:42:06;;;;;;;2.20;1.00;;;;;;;21.84;57.79;100691.25;5038016;28;20208;-86
2022/07/26 10:44:37;;;;;;;2.75;1.02;;;;;;;21.86;57.65;100693.75;5036264;28;20214;-86
2022/07/26 10:47:14;;;;;;;1.40;0.93;;;;;;;21.92;58.04;100693.09;5038535;28;20204;-85
2022/07/26 10:49:44;;;;;;;2.55;1.17;;;;;;;21.99;57.90;100691.41;5037689;28;20260;-87
2022/07/26 10:52:12;;;;;;;4.05;1.40;;;;;;;22.02;57.94;100704.66;5037568;28;20244;-85
2022/07/26 10:55:16;;;;;;;2.03;1.30;;;;;;;22.05;57.84;100701.59;5039580;28;20217;-84
2022/07/26 10:57:45;;;;;;;2.05;1.30;;;;;;;22.04;58.16;100703.44;5035684;28;20583;-85
2022/07/26 11:00:20;;;;;;;1.40;1.30;;;;;;;22.07;58.33;100697.69;5038765;28;20204;-87
2022/07/26 11:02:55;;;;;;;1.80;1.27;;;;;;;22.06;58.42;100712.28;5039995;28;20296;-85
2022/07/26 11:05:26;;;;;;;2.42;1.50;;;;;;;22.05;58.57;100705.16;5041754;28;20255;-86
2022/07/26 11:08:07;;;;;;;1.65;1.27;;;;;;;22.04;58.64;100702.59;5038926;28;20222;-86
2022/07/26 11:10:36;;;;;;;1.30;1.20;;;;;;;22.04;58.62;100705.31;5038066;28;20271;-86
2022/07/26 11:13:08;;;;;;;1.90;1.30;;;;;;;22.03;58.87;100711.78;5042847;28;20204;-86
2022/07/26 11:15:38;;;;;;;2.25;1.33;;;;;;;22.01;58.88;100720.09;5036489;28;20229;-86
2022/07/26 11:18:18;;;;;;;3.05;1.35;;;;;;;22.00;58.88;100712.97;5036656;28;20248;-84
2022/07/26 11:20:47;;;;;;;1.77;1.10;;;;;;;21.98;58.49;100714.13;5035827;28;20193;-86
2022/07/26 11:23:22;;;;;;;2.17;0.90;;;;;;;21.96;58.36;100717.00;5039051;28;20210;-85
2022/07/26 11:26:17;;;;;;;2.90;1.35;;;;;;;21.97;57.96;100717.84;5038568;28;20330;-86
2022/07/26 11:29:00;;;;;;;2.05;1.00;;;;;;;21.93;57.81;100721.91;5000976;28;20230;-85
2022/07/26 11:31:35;;;;;;;1.23;0.77;;;;;;;21.90;57.67;100722.22;5040070;28;20208;-85